sensor_id;sensor_type;location;lat;lon;timestamp;P1;durP1;ratioP1;P2;durP2;ratioP2
19223;SDS011;9746;47.180;9.776;2023-05-07T05:51:30;0.20;;;0.20;;
19223;SDS011;9746;47.180;9.776;2023-05-07T05:53:59;0.20;;;0.20;;
19223;SDS011;9746;47.180;9.776;2023-05-07T05:56:36;0.20;;;0.20;;
19223;SDS011;9746;47.180;9.776;2023-05-07T05:59:03;0.20;;;0.20;;
19223;SDS011;9746;47.180;9.776;2023-05-07T06:01:33;0.30;;;0.30;;
19223;SDS011;9746;47.180;9.776;2023-05-07T06:04:00;0.20;;;0.20;;
19223;SDS011;9746;47.180;9.776;2023-05-07T06:06:32;0.20;;;0.20;;
19223;SDS011;9746;47.180;9.776;2023-05-07T06:09:00;0.20;;;0.20;;
19223;SDS011;9746;47.180;9.776;2023-05-07T06:11:40;0.20;;;0.20;;
19223;SDS011;9746;47.180;9.776;2023-05-07T06:14:07;0.20;;;0.20;;
19223;SDS011;9746;47.180;9.776;2023-05-07T06:16:47;0.20;;;0.20;;
19223;SDS011;9746;47.180;9.776;2023-05-07T06:19:15;0.20;;;0.20;;
19223;SDS011;9746;47.180;9.776;2023-05-07T06:24:31;0.20;;;0.20;;
19223;SDS011;9746;47.180;9.776;2023-05-07T06:27:01;0.20;;;0.20;;
19223;SDS011;9746;47.180;9.776;2023-05-07T06:29:28;0.20;;;0.20;;
19223;SDS011;9746;47.180;9.776;2023-05-07T06:32:12;0.10;;;0.10;;
19223;SDS011;9746;47.180;9.776;2023-05-07T06:34:42;0.20;;;0.20;;
19223;SDS011;9746;47.180;9.776;2023-05-07T06:40:18;0.20;;;0.20;;
19223;SDS011;9746;47.180;9.776;2023-05-07T06:45:40;0.13;;;0.13;;
19223;SDS011;9746;47.180;9.776;2023-05-07T06:48:07;0.17;;;0.17;;
19223;SDS011;9746;47.180;9.776;2023-05-07T06:50:35;0.20;;;0.20;;
19223;SDS011;9746;47.180;9.776;2023-05-07T06:53:02;0.10;;;0.10;;
19223;SDS011;9746;47.180;9.776;2023-05-07T06:55:31;0.20;;;0.20;;
19223;SDS011;9746;47.180;9.776;2023-05-07T06:57:59;0.10;;;0.10;;
19223;SDS011;9746;47.180;9.776;2023-05-07T07:00:27;0.10;;;0.10;;
19223;SDS011;9746;47.180;9.776;2023-05-07T07:06:00;0.17;;;0.17;;
19223;SDS011;9746;47.180;9.776;2023-05-07T07:08:28;0.17;;;0.17;;
19223;SDS011;9746;47.180;9.776;2023-05-07T07:10:57;0.20;;;0.20;;
19223;SDS011;9746;47.180;9.776;2023-05-07T07:13:25;0.10;;;0.10;;
19223;SDS011;9746;47.180;9.776;2023-05-07T07:15:52;0.20;;;0.20;;
19223;SDS011;9746;47.180;9.776;2023-05-07T07:18:20;0.20;;;0.20;;
19223;SDS011;9746;47.180;9.776;2023-05-07T07:20:47;0.17;;;0.17;;
19223;SDS011;9746;47.180;9.776;2023-05-07T07:23:14;0.10;;;0.10;;
19223;SDS011;9746;47.180;9.776;2023-05-07T07:25:42;0.20;;;0.20;;
19223;SDS011;9746;47.180;9.776;2023-05-07T07:31:32;0.10;;;0.10;;
19223;SDS011;9746;47.180;9.776;2023-05-07T07:34:00;0.10;;;0.10;;
19223;SDS011;9746;47.180;9.776;2023-05-07T07:36:35;0.10;;;0.10;;
19223;SDS011;9746;47.180;9.776;2023-05-07T07:39:03;0.10;;;0.10;;
19223;SDS011;9746;47.180;9.776;2023-05-07T07:41:36;0.10;;;0.10;;
19223;SDS011;9746;47.180;9.776;2023-05-07T07:44:04;0.10;;;0.10;;
19223;SDS011;9746;47.180;9.776;2023-05-07T07:49:11;0.15;;;0.15;;
19223;SDS011;9746;47.180;9.776;2023-05-07T07:54:24;0.20;;;0.20;;
19223;SDS011;9746;47.180;9.776;2023-05-07T07:56:52;0.10;;;0.10;;
19223;SDS011;9746;47.180;9.776;2023-05-07T07:59:19;0.20;;;0.20;;
19223;SDS011;9746;47.180;9.776;2023-05-07T08:01:49;0.15;;;0.15;;
19223;SDS011;9746;47.180;9.776;2023-05-07T08:04:18;0.10;;;0.10;;
19223;SDS011;9746;47.180;9.776;2023-05-07T08:06:53;0.10;;;0.10;;
19223;SDS011;9746;47.180;9.776;2023-05-07T08:09:21;0.10;;;0.10;;
19223;SDS011;9746;47.180;9.776;2023-05-07T08:11:54;0.20;;;0.20;;
19223;SDS011;9746;47.180;9.776;2023-05-07T08:14:22;0.10;;;0.10;;
19223;SDS011;9746;47.180;9.776;2023-05-07T08:19:57;0.10;;;0.10;;
19223;SDS011;9746;47.180;9.776;2023-05-07T08:22:35;0.10;;;0.10;;
19223;SDS011;9746;47.180;9.776;2023-05-07T08:25:03;0.20;;;0.20;;
19223;SDS011;9746;47.180;9.776;2023-05-07T08:27:37;0.10;;;0.10;;
19223;SDS011;9746;47.180;9.776;2023-05-07T08:30:05;0.20;;;0.20;;
19223;SDS011;9746;47.180;9.776;2023-05-07T08:32:35;0.20;;;0.20;;
19223;SDS011;9746;47.180;9.776;2023-05-07T08:35:05;0.10;;;0.10;;
19223;SDS011;9746;47.180;9.776;2023-05-07T08:37:35;0.10;;;0.10;;
19223;SDS011;9746;47.180;9.776;2023-05-07T08:40:06;0.10;;;0.10;;
19223;SDS011;9746;47.180;9.776;2023-05-07T08:45:08;0.10;;;0.10;;
19223;SDS011;9746;47.180;9.776;2023-05-07T08:47:42;0.10;;;0.10;;
19223;SDS011;9746;47.180;9.776;2023-05-07T08:50:14;0.20;;;0.20;;
19223;SDS011;9746;47.180;9.776;2023-05-07T08:55:23;0.10;;;0.10;;
19223;SDS011;9746;47.180;9.776;2023-05-07T08:58:06;0.10;;;0.10;;
19223;SDS011;9746;47.180;9.776;2023-05-07T09:00:33;0.10;;;0.10;;
19223;SDS011;9746;47.180;9.776;2023-05-07T09:05:44;0.13;;;0.13;;
19223;SDS011;9746;47.180;9.776;2023-05-07T09:10:52;0.10;;;0.10;;
19223;SDS011;9746;47.180;9.776;2023-05-07T09:13:37;0.20;;;0.20;;
19223;SDS011;9746;47.180;9.776;2023-05-07T09:16:09;0.10;;;0.10;;
19223;SDS011;9746;47.180;9.776;2023-05-07T09:18:43;0.20;;;0.20;;
19223;SDS011;9746;47.180;9.776;2023-05-07T09:21:17;0.20;;;0.20;;
19223;SDS011;9746;47.180;9.776;2023-05-07T09:23:56;0.20;;;0.20;;
19223;SDS011;9746;47.180;9.776;2023-05-07T09:26:24;0.20;;;0.20;;
19223;SDS011;9746;47.180;9.776;2023-05-07T09:31:53;0.10;;;0.10;;
19223;SDS011;9746;47.180;9.776;2023-05-07T09:34:22;0.20;;;0.20;;
19223;SDS011;9746;47.180;9.776;2023-05-07T09:37:12;0.20;;;0.20;;
19223;SDS011;9746;47.180;9.776;2023-05-07T09:39:41;0.20;;;0.20;;
19223;SDS011;9746;47.180;9.776;2023-05-07T09:42:15;0.20;;;0.20;;
19223;SDS011;9746;47.180;9.776;2023-05-07T09:44:53;0.10;;;0.10;;
19223;SDS011;9746;47.180;9.776;2023-05-07T09:47:30;0.17;;;0.17;;
19223;SDS011;9746;47.180;9.776;2023-05-07T09:49:59;0.10;;;0.10;;
19223;SDS011;9746;47.180;9.776;2023-05-07T09:52:44;0.20;;;0.20;;
19223;SDS011;9746;47.180;9.776;2023-05-07T09:55:14;0.20;;;0.20;;
19223;SDS011;9746;47.180;9.776;2023-05-07T09:57:45;0.20;;;0.20;;
19223;SDS011;9746;47.180;9.776;2023-05-07T10:00:20;0.20;;;0.20;;
19223;SDS011;9746;47.180;9.776;2023-05-07T10:02:57;0.20;;;0.20;;
19223;SDS011;9746;47.180;9.776;2023-05-07T10:05:34;0.20;;;0.20;;
19223;SDS011;9746;47.180;9.776;2023-05-07T10:08:08;0.10;;;0.10;;
19223;SDS011;9746;47.180;9.776;2023-05-07T10:10:44;0.10;;;0.10;;
19223;SDS011;9746;47.180;9.776;2023-05-07T10:13:17;0.20;;;0.20;;
19223;SDS011;9746;47.180;9.776;2023-05-07T10:15:48;0.17;;;0.17;;
19223;SDS011;9746;47.180;9.776;2023-05-07T10:18:38;0.20;;;0.20;;
19223;SDS011;9746;47.180;9.776;2023-05-07T10:21:10;0.20;;;0.20;;
19223;SDS011;9746;47.180;9.776;2023-05-07T10:23:44;0.17;;;0.17;;
19223;SDS011;9746;47.180;9.776;2023-05-07T10:26:12;0.15;;;0.15;;
19223;SDS011;9746;47.180;9.776;2023-05-07T10:28:44;0.10;;;0.10;;
19223;SDS011;9746;47.180;9.776;2023-05-07T10:31:23;0.17;;;0.17;;
19223;SDS011;9746;47.180;9.776;2023-05-07T10:34:29;0.10;;;0.10;;
19223;SDS011;9746;47.180;9.776;2023-05-07T10:37:02;0.10;;;0.10;;
19223;SDS011;9746;47.180;9.776;2023-05-07T10:42:57;0.10;;;0.10;;
19223;SDS011;9746;47.180;9.776;2023-05-07T10:45:27;0.10;;;0.10;;
19223;SDS011;9746;47.180;9.776;2023-05-07T10:48:09;0.10;;;0.10;;
19223;SDS011;9746;47.180;9.776;2023-05-07T10:50:38;0.20;;;0.20;;
19223;SDS011;9746;47.180;9.776;2023-05-07T10:59:01;0.10;;;0.10;;
19223;SDS011;9746;47.180;9.776;2023-05-07T11:01:59;0.10;;;0.10;;
19223;SDS011;9746;47.180;9.776;2023-05-07T11:10:04;0.10;;;0.10;;
19223;SDS011;9746;47.180;9.776;2023-05-07T11:15:36;0.00;;;0.00;;
19223;SDS011;9746;47.180;9.776;2023-05-07T11:18:15;0.10;;;0.10;;
19223;SDS011;9746;47.180;9.776;2023-05-07T11:20:47;0.10;;;0.10;;
19223;SDS011;9746;47.180;9.776;2023-05-07T11:26:43;0.10;;;0.10;;
19223;SDS011;9746;47.180;9.776;2023-05-07T11:29:29;0.10;;;0.10;;
19223;SDS011;9746;47.180;9.776;2023-05-07T11:31:58;0.10;;;0.10;;
19223;SDS011;9746;47.180;9.776;2023-05-07T11:37:11;0.10;;;0.10;;
19223;SDS011;9746;47.180;9.776;2023-05-07T11:42:44;0.00;;;0.00;;
19223;SDS011;9746;47.180;9.776;2023-05-07T11:45:11;0.10;;;0.10;;
19223;SDS011;9746;47.180;9.776;2023-05-07T11:47:53;0.00;;;0.00;;
19223;SDS011;9746;47.180;9.776;2023-05-07T11:50:22;0.00;;;0.00;;
19223;SDS011;9746;47.180;9.776;2023-05-07T11:52:52;0.00;;;0.00;;
19223;SDS011;9746;47.180;9.776;2023-05-07T11:55:20;0.00;;;0.00;;
19223;SDS011;9746;47.180;9.776;2023-05-07T12:00:20;0.00;;;0.00;;
19223;SDS011;9746;47.180;9.776;2023-05-07T12:05:40;0.00;;;0.00;;
19223;SDS011;9746;47.180;9.776;2023-05-07T12:08:16;0.00;;;0.00;;
19223;SDS011;9746;47.180;9.776;2023-05-07T12:10:45;0.00;;;0.00;;
19223;SDS011;9746;47.180;9.776;2023-05-07T12:16:32;0.00;;;0.00;;
19223;SDS011;9746;47.180;9.776;2023-05-07T12:19:11;0.00;;;0.00;;
19223;SDS011;9746;47.180;9.776;2023-05-07T12:21:40;0.00;;;0.00;;
19223;SDS011;9746;47.180;9.776;2023-05-07T12:24:14;0.00;;;0.00;;
19223;SDS011;9746;47.180;9.776;2023-05-07T12:26:42;0.00;;;0.00;;
19223;SDS011;9746;47.180;9.776;2023-05-07T12:29:25;0.00;;;0.00;;
19223;SDS011;9746;47.180;9.776;2023-05-07T12:31:54;0.00;;;0.00;;
19223;SDS011;9746;47.180;9.776;2023-05-07T12:34:23;0.00;;;0.00;;
19223;SDS011;9746;47.180;9.776;2023-05-07T12:36:52;0.00;;;0.00;;
19223;SDS011;9746;47.180;9.776;2023-05-07T12:39:30;0.00;;;0.00;;
19223;SDS011;9746;47.180;9.776;2023-05-07T12:41:58;0.00;;;0.00;;
19223;SDS011;9746;47.180;9.776;2023-05-07T12:44:29;0.00;;;0.00;;
19223;SDS011;9746;47.180;9.776;2023-05-07T12:46:58;0.00;;;0.00;;
19223;SDS011;9746;47.180;9.776;2023-05-07T12:52:04;0.00;;;0.00;;
19223;SDS011;9746;47.180;9.776;2023-05-07T12:57:28;0.00;;;0.00;;
19223;SDS011;9746;47.180;9.776;2023-05-07T13:02:37;0.00;;;0.00;;
19223;SDS011;9746;47.180;9.776;2023-05-07T13:05:12;0.00;;;0.00;;
19223;SDS011;9746;47.180;9.776;2023-05-07T13:07:41;0.00;;;0.00;;
19223;SDS011;9746;47.180;9.776;2023-05-07T13:13:16;0.00;;;0.00;;
19223;SDS011;9746;47.180;9.776;2023-05-07T13:15:43;0.00;;;0.00;;
19223;SDS011;9746;47.180;9.776;2023-05-07T13:18:10;0.00;;;0.00;;
19223;SDS011;9746;47.180;9.776;2023-05-07T13:23:29;0.00;;;0.00;;
19223;SDS011;9746;47.180;9.776;2023-05-07T13:25:58;0.00;;;0.00;;
19223;SDS011;9746;47.180;9.776;2023-05-07T13:32:00;0.00;;;0.00;;
19223;SDS011;9746;47.180;9.776;2023-05-07T13:37:11;0.00;;;0.00;;
19223;SDS011;9746;47.180;9.776;2023-05-07T13:39:40;0.00;;;0.00;;
19223;SDS011;9746;47.180;9.776;2023-05-07T13:42:07;0.00;;;0.00;;
19223;SDS011;9746;47.180;9.776;2023-05-07T13:44:36;0.00;;;0.00;;
19223;SDS011;9746;47.180;9.776;2023-05-07T13:47:03;0.00;;;0.00;;
19223;SDS011;9746;47.180;9.776;2023-05-07T13:49:33;0.00;;;0.00;;
19223;SDS011;9746;47.180;9.776;2023-05-07T13:52:01;0.00;;;0.00;;
19223;SDS011;9746;47.180;9.776;2023-05-07T13:54:30;0.00;;;0.00;;
19223;SDS011;9746;47.180;9.776;2023-05-07T13:56:59;0.00;;;0.00;;
19223;SDS011;9746;47.180;9.776;2023-05-07T13:59:34;0.00;;;0.00;;
19223;SDS011;9746;47.180;9.776;2023-05-07T14:02:02;0.00;;;0.00;;
19223;SDS011;9746;47.180;9.776;2023-05-07T14:04:32;0.00;;;0.00;;
19223;SDS011;9746;47.180;9.776;2023-05-07T14:06:59;0.00;;;0.00;;
19223;SDS011;9746;47.180;9.776;2023-05-07T14:12:25;0.00;;;0.00;;
19223;SDS011;9746;47.180;9.776;2023-05-07T14:17:42;0.00;;;0.00;;
19223;SDS011;9746;47.180;9.776;2023-05-07T14:20:12;0.00;;;0.00;;
19223;SDS011;9746;47.180;9.776;2023-05-07T14:22:39;0.00;;;0.00;;
19223;SDS011;9746;47.180;9.776;2023-05-07T14:25:08;0.00;;;0.00;;
19223;SDS011;9746;47.180;9.776;2023-05-07T14:27:37;0.00;;;0.00;;
19223;SDS011;9746;47.180;9.776;2023-05-07T14:32:54;0.00;;;0.00;;
19223;SDS011;9746;47.180;9.776;2023-05-07T14:38:16;0.00;;;0.00;;
19223;SDS011;9746;47.180;9.776;2023-05-07T14:40:55;0.00;;;0.00;;
19223;SDS011;9746;47.180;9.776;2023-05-07T14:43:29;0.00;;;0.00;;
19223;SDS011;9746;47.180;9.776;2023-05-07T14:48:28;0.00;;;0.00;;
19223;SDS011;9746;47.180;9.776;2023-05-07T14:50:58;0.00;;;0.00;;
19223;SDS011;9746;47.180;9.776;2023-05-07T14:53:27;0.00;;;0.00;;
19223;SDS011;9746;47.180;9.776;2023-05-07T14:58:33;0.00;;;0.00;;
19223;SDS011;9746;47.180;9.776;2023-05-07T15:01:14;0.00;;;0.00;;
19223;SDS011;9746;47.180;9.776;2023-05-07T15:03:42;0.00;;;0.00;;
19223;SDS011;9746;47.180;9.776;2023-05-07T15:06:21;0.00;;;0.00;;
19223;SDS011;9746;47.180;9.776;2023-05-07T15:08:49;0.00;;;0.00;;
19223;SDS011;9746;47.180;9.776;2023-05-07T15:11:16;0.00;;;0.00;;
19223;SDS011;9746;47.180;9.776;2023-05-07T15:13:45;0.10;;;0.10;;
19223;SDS011;9746;47.180;9.776;2023-05-07T15:18:50;0.10;;;0.10;;
19223;SDS011;9746;47.180;9.776;2023-05-07T15:21:32;0.10;;;0.10;;
19223;SDS011;9746;47.180;9.776;2023-05-07T15:24:00;0.10;;;0.10;;
19223;SDS011;9746;47.180;9.776;2023-05-07T15:26:28;0.10;;;0.10;;
19223;SDS011;9746;47.180;9.776;2023-05-07T15:28:58;0.10;;;0.10;;
19223;SDS011;9746;47.180;9.776;2023-05-07T15:31:34;0.08;;;0.08;;
19223;SDS011;9746;47.180;9.776;2023-05-07T15:34:04;0.10;;;0.10;;
19223;SDS011;9746;47.180;9.776;2023-05-07T15:36:43;0.10;;;0.10;;
19223;SDS011;9746;47.180;9.776;2023-05-07T15:39:11;0.10;;;0.10;;
19223;SDS011;9746;47.180;9.776;2023-05-07T15:41:39;0.10;;;0.10;;
19223;SDS011;9746;47.180;9.776;2023-05-07T15:44:08;0.10;;;0.10;;
19223;SDS011;9746;47.180;9.776;2023-05-07T15:49:08;0.10;;;0.10;;
19223;SDS011;9746;47.180;9.776;2023-05-07T15:51:35;0.10;;;0.10;;
19223;SDS011;9746;47.180;9.776;2023-05-07T15:54:03;0.10;;;0.10;;
19223;SDS011;9746;47.180;9.776;2023-05-07T15:56:43;0.10;;;0.10;;
19223;SDS011;9746;47.180;9.776;2023-05-07T15:59:12;0.10;;;0.10;;
19223;SDS011;9746;47.180;9.776;2023-05-07T16:01:41;0.10;;;0.10;;
19223;SDS011;9746;47.180;9.776;2023-05-07T16:04:09;0.10;;;0.10;;
19223;SDS011;9746;47.180;9.776;2023-05-07T16:06:42;0.10;;;0.10;;
19223;SDS011;9746;47.180;9.776;2023-05-07T16:09:11;0.10;;;0.10;;
19223;SDS011;9746;47.180;9.776;2023-05-07T16:11:40;0.10;;;0.10;;
19223;SDS011;9746;47.180;9.776;2023-05-07T16:14:07;0.20;;;0.20;;
19223;SDS011;9746;47.180;9.776;2023-05-07T16:16:36;0.17;;;0.17;;
19223;SDS011;9746;47.180;9.776;2023-05-07T16:19:05;0.10;;;0.10;;
19223;SDS011;9746;47.180;9.776;2023-05-07T16:21:32;0.10;;;0.10;;
19223;SDS011;9746;47.180;9.776;2023-05-07T16:24:04;0.10;;;0.10;;
19223;SDS011;9746;47.180;9.776;2023-05-07T16:29:11;0.10;;;0.10;;
19223;SDS011;9746;47.180;9.776;2023-05-07T16:34:17;0.10;;;0.10;;
19223;SDS011;9746;47.180;9.776;2023-05-07T16:36:56;0.10;;;0.10;;
19223;SDS011;9746;47.180;9.776;2023-05-07T16:39:24;0.15;;;0.15;;
19223;SDS011;9746;47.180;9.776;2023-05-07T16:44:28;0.10;;;0.10;;
19223;SDS011;9746;47.180;9.776;2023-05-07T16:49:27;0.10;;;0.10;;
19223;SDS011;9746;47.180;9.776;2023-05-07T16:51:55;0.10;;;0.10;;
19223;SDS011;9746;47.180;9.776;2023-05-07T16:54:22;0.20;;;0.20;;
19223;SDS011;9746;47.180;9.776;2023-05-07T16:59:40;0.20;;;0.20;;
19223;SDS011;9746;47.180;9.776;2023-05-07T17:02:17;0.20;;;0.20;;
19223;SDS011;9746;47.180;9.776;2023-05-07T17:04:49;0.20;;;0.20;;
19223;SDS011;9746;47.180;9.776;2023-05-07T17:07:16;0.20;;;0.20;;
19223;SDS011;9746;47.180;9.776;2023-05-07T17:09:44;0.20;;;0.20;;
19223;SDS011;9746;47.180;9.776;2023-05-07T17:12:14;0.20;;;0.20;;
19223;SDS011;9746;47.180;9.776;2023-05-07T17:14:41;0.20;;;0.20;;
19223;SDS011;9746;47.180;9.776;2023-05-07T17:20:02;0.20;;;0.20;;
19223;SDS011;9746;47.180;9.776;2023-05-07T17:22:31;0.20;;;0.20;;
19223;SDS011;9746;47.180;9.776;2023-05-07T17:24:58;0.20;;;0.20;;
19223;SDS011;9746;47.180;9.776;2023-05-07T17:27:28;0.20;;;0.20;;
19223;SDS011;9746;47.180;9.776;2023-05-07T17:30:00;0.17;;;0.17;;
19223;SDS011;9746;47.180;9.776;2023-05-07T17:32:32;0.20;;;0.20;;
19223;SDS011;9746;47.180;9.776;2023-05-07T17:37:42;0.20;;;0.20;;
19223;SDS011;9746;47.180;9.776;2023-05-07T17:40:22;0.20;;;0.20;;
19223;SDS011;9746;47.180;9.776;2023-05-07T17:42:50;0.20;;;0.20;;
19223;SDS011;9746;47.180;9.776;2023-05-07T17:47:55;0.20;;;0.20;;
19223;SDS011;9746;47.180;9.776;2023-05-07T17:50:27;0.10;;;0.10;;
19223;SDS011;9746;47.180;9.776;2023-05-07T17:52:54;0.15;;;0.15;;
19223;SDS011;9746;47.180;9.776;2023-05-07T17:58:09;0.17;;;0.17;;
19223;SDS011;9746;47.180;9.776;2023-05-07T18:03:09;0.20;;;0.20;;
19223;SDS011;9746;47.180;9.776;2023-05-07T18:05:47;0.20;;;0.20;;
19223;SDS011;9746;47.180;9.776;2023-05-07T18:08:14;0.17;;;0.17;;
19223;SDS011;9746;47.180;9.776;2023-05-07T18:10:59;0.20;;;0.20;;
19223;SDS011;9746;47.180;9.776;2023-05-07T18:13:26;0.20;;;0.20;;
19223;SDS011;9746;47.180;9.776;2023-05-07T18:15:54;0.20;;;0.20;;
19223;SDS011;9746;47.180;9.776;2023-05-07T18:18:21;0.20;;;0.20;;
19223;SDS011;9746;47.180;9.776;2023-05-07T18:24:00;0.20;;;0.20;;
19223;SDS011;9746;47.180;9.776;2023-05-07T18:26:29;0.20;;;0.20;;
19223;SDS011;9746;47.180;9.776;2023-05-07T18:28:59;0.20;;;0.20;;
19223;SDS011;9746;47.180;9.776;2023-05-07T18:31:33;0.15;;;0.15;;
19223;SDS011;9746;47.180;9.776;2023-05-07T18:34:01;0.20;;;0.20;;
19223;SDS011;9746;47.180;9.776;2023-05-07T18:39:20;0.20;;;0.20;;
19223;SDS011;9746;47.180;9.776;2023-05-07T18:44:43;0.13;;;0.13;;
19223;SDS011;9746;47.180;9.776;2023-05-07T18:50:19;0.20;;;0.20;;
19223;SDS011;9746;47.180;9.776;2023-05-07T18:53:00;0.20;;;0.20;;
19223;SDS011;9746;47.180;9.776;2023-05-07T18:58:57;0.20;;;0.20;;
19223;SDS011;9746;47.180;9.776;2023-05-07T19:04:18;0.20;;;0.20;;
19223;SDS011;9746;47.180;9.776;2023-05-07T19:06:46;0.20;;;0.20;;
19223;SDS011;9746;47.180;9.776;2023-05-07T19:09:14;0.20;;;0.20;;
19223;SDS011;9746;47.180;9.776;2023-05-07T19:11:41;0.20;;;0.20;;
19223;SDS011;9746;47.180;9.776;2023-05-07T19:14:12;0.20;;;0.20;;
19223;SDS011;9746;47.180;9.776;2023-05-07T19:20:01;0.20;;;0.20;;
19223;SDS011;9746;47.180;9.776;2023-05-07T19:22:42;0.20;;;0.20;;
19223;SDS011;9746;47.180;9.776;2023-05-07T19:25:09;0.20;;;0.20;;
19223;SDS011;9746;47.180;9.776;2023-05-07T19:30:12;0.10;;;0.10;;
19223;SDS011;9746;47.180;9.776;2023-05-07T19:35:21;0.20;;;0.20;;
19223;SDS011;9746;47.180;9.776;2023-05-07T19:37:50;0.20;;;0.20;;
19223;SDS011;9746;47.180;9.776;2023-05-07T19:40:17;0.20;;;0.20;;
19223;SDS011;9746;47.180;9.776;2023-05-07T19:45:46;0.20;;;0.20;;
19223;SDS011;9746;47.180;9.776;2023-05-07T19:48:15;0.20;;;0.20;;
19223;SDS011;9746;47.180;9.776;2023-05-07T19:50:45;0.20;;;0.20;;
19223;SDS011;9746;47.180;9.776;2023-05-07T19:53:14;0.20;;;0.20;;
19223;SDS011;9746;47.180;9.776;2023-05-07T19:55:41;0.20;;;0.20;;
19223;SDS011;9746;47.180;9.776;2023-05-07T19:58:14;0.20;;;0.20;;
19223;SDS011;9746;47.180;9.776;2023-05-07T20:00:43;0.20;;;0.20;;
19223;SDS011;9746;47.180;9.776;2023-05-07T20:06:16;0.10;;;0.10;;
19223;SDS011;9746;47.180;9.776;2023-05-07T20:08:44;0.20;;;0.20;;
